ASA372 KDEN-KLAX
Flight info
| Callsign | ASA372 |
|---|---|
| Flight time | 1h 46m |
| Altitude | 36000 |
| Route | BAYLR6 TEHRU JASSE Q90 DNERO ANJLL4 |
| Aircraft | B739/M-SDE2E3FGHIRWXY/LB1 |
Departure
| Time | 2026-05-07 03:45 |
|---|---|
| Airport | Denver International Airport (KDEN) |
Arrival
| Time | 2026-05-07 05:31 |
|---|---|
| Airport | Los Angeles International Airport (KLAX) |
| Time | Latitude | Longitude | Altitude | Speed | Heading |
|---|---|---|---|---|---|
| 2026-05-07 03:11 | 39.85338 | -104.67158 | 5376 ft | 0 kts | 1° |
| 2026-05-07 03:27 | 39.85329 | -104.67159 | 5384 ft | 2 kts | 1° |
| 2026-05-07 03:27 | 39.85312 | -104.67159 | 5385 ft | 2 kts | 1° |
| 2026-05-07 03:27 | 39.85296 | -104.67160 | 5383 ft | 2 kts | 1° |
| 2026-05-07 03:27 | 39.85280 | -104.67161 | 5383 ft | 2 kts | 20° |
| 2026-05-07 03:28 | 39.85267 | -104.67173 | 5383 ft | 1 kts | 79° |
| 2026-05-07 03:28 | 39.85266 | -104.67183 | 5384 ft | 1 kts | 96° |
| 2026-05-07 03:28 | 39.85266 | -104.67184 | 5384 ft | 0 kts | 96° |
| 2026-05-07 03:32 | 39.85266 | -104.67183 | 5384 ft | 1 kts | 96° |
| 2026-05-07 03:32 | 39.85265 | -104.67160 | 5383 ft | 5 kts | 90° |
| 2026-05-07 03:32 | 39.85268 | -104.67107 | 5385 ft | 7 kts | 84° |
| 2026-05-07 03:32 | 39.85275 | -104.67028 | 5385 ft | 10 kts | 84° |
| 2026-05-07 03:33 | 39.85278 | -104.66926 | 5385 ft | 12 kts | 89° |
| 2026-05-07 03:33 | 39.85279 | -104.66802 | 5386 ft | 15 kts | 89° |
| 2026-05-07 03:33 | 39.85278 | -104.66660 | 5386 ft | 17 kts | 92° |
| 2026-05-07 03:33 | 39.85286 | -104.66550 | 5386 ft | 11 kts | 72° |
| 2026-05-07 03:34 | 39.85293 | -104.66441 | 5386 ft | 12 kts | 92° |
| 2026-05-07 03:34 | 39.85299 | -104.66389 | 5391 ft | 5 kts | 58° |
| 2026-05-07 03:34 | 39.85315 | -104.66354 | 5395 ft | 5 kts | 89° |
| 2026-05-07 03:34 | 39.85310 | -104.66313 | 5395 ft | 5 kts | 103° |
| 2026-05-07 03:35 | 39.85309 | -104.66266 | 5396 ft | 6 kts | 68° |
| 2026-05-07 03:35 | 39.85356 | -104.66243 | 5395 ft | 10 kts | 4° |
| 2026-05-07 03:35 | 39.85437 | -104.66238 | 5398 ft | 13 kts | 1° |
| 2026-05-07 03:35 | 39.85540 | -104.66240 | 5393 ft | 17 kts | 359° |
| 2026-05-07 03:36 | 39.85668 | -104.66243 | 5390 ft | 20 kts | 359° |
| 2026-05-07 03:36 | 39.85815 | -104.66237 | 5392 ft | 23 kts | 4° |
| 2026-05-07 03:36 | 39.85987 | -104.66234 | 5390 ft | 27 kts | 358° |
| 2026-05-07 03:36 | 39.86179 | -104.66239 | 5385 ft | 29 kts | 359° |
| 2026-05-07 03:37 | 39.86386 | -104.66234 | 5378 ft | 27 kts | 1° |
| 2026-05-07 03:37 | 39.86479 | -104.66227 | 5385 ft | 9 kts | 20° |
| 2026-05-07 03:37 | 39.86500 | -104.66140 | 5376 ft | 13 kts | 88° |
| 2026-05-07 03:37 | 39.86500 | -104.66004 | 5375 ft | 16 kts | 91° |
| 2026-05-07 03:38 | 39.86497 | -104.65846 | 5372 ft | 19 kts | 90° |
| 2026-05-07 03:38 | 39.86495 | -104.65657 | 5364 ft | 22 kts | 90° |
| 2026-05-07 03:38 | 39.86494 | -104.65442 | 5360 ft | 25 kts | 90° |
| 2026-05-07 03:38 | 39.86493 | -104.65239 | 5356 ft | 20 kts | 90° |
| 2026-05-07 03:39 | 39.86493 | -104.65080 | 5354 ft | 15 kts | 91° |
| 2026-05-07 03:39 | 39.86491 | -104.64943 | 5352 ft | 15 kts | 90° |
| 2026-05-07 03:39 | 39.86490 | -104.64813 | 5350 ft | 14 kts | 92° |
| 2026-05-07 03:39 | 39.86488 | -104.64688 | 5346 ft | 13 kts | 89° |
| 2026-05-07 03:40 | 39.86488 | -104.64568 | 5343 ft | 13 kts | 90° |
| 2026-05-07 03:40 | 39.86487 | -104.64490 | 5340 ft | 13 kts | 91° |
| 2026-05-07 03:40 | 39.86485 | -104.64340 | 5337 ft | 6 kts | 90° |
| 2026-05-07 03:40 | 39.86485 | -104.64278 | 5335 ft | 6 kts | 89° |
| 2026-05-07 03:41 | 39.86485 | -104.64271 | 5337 ft | 0 kts | 89° |
| 2026-05-07 03:41 | 39.86486 | -104.64248 | 5333 ft | 7 kts | 89° |
| 2026-05-07 03:41 | 39.86486 | -104.64173 | 5335 ft | 9 kts | 90° |
| 2026-05-07 03:42 | 39.86472 | -104.64137 | 5334 ft | 7 kts | 155° |
| 2026-05-07 03:42 | 39.86460 | -104.64135 | 5335 ft | 0 kts | 175° |
| 2026-05-07 03:44 | 39.86363 | -104.64130 | 5337 ft | 43 kts | 179° |
| 2026-05-07 03:44 | 39.85834 | -104.64134 | 5349 ft | 107 kts | 180° |
| 2026-05-07 03:44 | 39.84899 | -104.64148 | 5354 ft | 159 kts | 181° |
| 2026-05-07 03:44 | 39.83672 | -104.64191 | 5586 ft | 185 kts | 183° |
| 2026-05-07 03:45 | 39.82362 | -104.64348 | 6122 ft | 202 kts | 188° |
| 2026-05-07 03:45 | 39.80904 | -104.64783 | 6532 ft | 227 kts | 206° |
| 2026-05-07 03:45 | 39.79653 | -104.66040 | 7202 ft | 237 kts | 226° |
| 2026-05-07 03:45 | 39.78450 | -104.67669 | 7421 ft | 259 kts | 227° |
| 2026-05-07 03:46 | 39.77178 | -104.69440 | 7837 ft | 271 kts | 232° |
| 2026-05-07 03:46 | 39.76292 | -104.71590 | 8512 ft | 271 kts | 256° |
| 2026-05-07 03:46 | 39.75894 | -104.73952 | 9238 ft | 271 kts | 271° |
| 2026-05-07 03:46 | 39.76083 | -104.76381 | 9889 ft | 269 kts | 282° |
| 2026-05-07 03:47 | 39.76371 | -104.78796 | 9950 ft | 268 kts | 282° |
| 2026-05-07 03:47 | 39.76640 | -104.81193 | 9987 ft | 270 kts | 281° |
| 2026-05-07 03:47 | 39.76895 | -104.83625 | 9991 ft | 272 kts | 281° |
| 2026-05-07 03:47 | 39.77137 | -104.86026 | 9992 ft | 272 kts | 280° |
| 2026-05-07 03:48 | 39.77379 | -104.88469 | 10006 ft | 272 kts | 280° |
| 2026-05-07 03:48 | 39.77451 | -104.90937 | 9983 ft | 278 kts | 263° |
| 2026-05-07 03:48 | 39.76922 | -104.93423 | 10116 ft | 295 kts | 257° |
| 2026-05-07 03:48 | 39.76319 | -104.96083 | 10302 ft | 316 kts | 258° |
| 2026-05-07 03:49 | 39.75697 | -104.98877 | 10625 ft | 330 kts | 258° |
| 2026-05-07 03:49 | 39.75050 | -105.01790 | 11211 ft | 336 kts | 258° |
| 2026-05-07 03:49 | 39.74317 | -105.04665 | 11823 ft | 342 kts | 253° |
| 2026-05-07 03:49 | 39.73380 | -105.07541 | 12459 ft | 348 kts | 251° |
| 2026-05-07 03:50 | 39.72385 | -105.10442 | 13067 ft | 353 kts | 251° |
| 2026-05-07 03:50 | 39.71383 | -105.13373 | 13674 ft | 357 kts | 251° |
| 2026-05-07 03:50 | 39.70380 | -105.16354 | 14248 ft | 361 kts | 252° |
| 2026-05-07 03:50 | 39.69388 | -105.19345 | 14806 ft | 365 kts | 252° |
| 2026-05-07 03:51 | 39.68386 | -105.22389 | 15331 ft | 368 kts | 252° |
| 2026-05-07 03:51 | 39.67374 | -105.25470 | 15881 ft | 371 kts | 252° |
| 2026-05-07 03:51 | 39.66364 | -105.28541 | 16390 ft | 375 kts | 252° |
| 2026-05-07 03:51 | 39.65331 | -105.31680 | 16860 ft | 380 kts | 252° |
| 2026-05-07 03:52 | 39.64282 | -105.34861 | 17398 ft | 384 kts | 252° |
| 2026-05-07 03:52 | 39.63240 | -105.38014 | 18003 ft | 386 kts | 252° |
| 2026-05-07 03:52 | 39.62174 | -105.41246 | 18563 ft | 389 kts | 252° |
| 2026-05-07 03:52 | 39.61114 | -105.44460 | 19025 ft | 392 kts | 252° |
| 2026-05-07 03:53 | 39.60033 | -105.47735 | 19483 ft | 396 kts | 252° |
| 2026-05-07 03:53 | 39.58940 | -105.51030 | 19961 ft | 399 kts | 252° |
| 2026-05-07 03:53 | 39.57833 | -105.54353 | 20437 ft | 402 kts | 252° |
| 2026-05-07 03:53 | 39.56718 | -105.57698 | 20900 ft | 406 kts | 252° |
| 2026-05-07 03:54 | 39.55601 | -105.61042 | 21338 ft | 409 kts | 252° |
| 2026-05-07 03:54 | 39.54525 | -105.64471 | 21765 ft | 411 kts | 255° |
| 2026-05-07 03:54 | 39.53541 | -105.67984 | 22170 ft | 415 kts | 256° |
| 2026-05-07 03:54 | 39.52585 | -105.71536 | 22586 ft | 417 kts | 256° |
| 2026-05-07 03:55 | 39.51641 | -105.75053 | 23046 ft | 420 kts | 256° |
| 2026-05-07 03:55 | 39.50671 | -105.78631 | 23489 ft | 423 kts | 256° |
| 2026-05-07 03:55 | 39.49674 | -105.82272 | 23889 ft | 427 kts | 256° |
| 2026-05-07 03:55 | 39.48682 | -105.85859 | 24241 ft | 430 kts | 255° |
| 2026-05-07 03:56 | 39.47661 | -105.89530 | 24606 ft | 431 kts | 255° |
| 2026-05-07 03:56 | 39.46634 | -105.93206 | 25001 ft | 434 kts | 255° |
| 2026-05-07 03:56 | 39.45617 | -105.96843 | 25370 ft | 436 kts | 255° |
| 2026-05-07 03:56 | 39.44577 | -106.00556 | 25716 ft | 438 kts | 255° |
| 2026-05-07 03:57 | 39.43533 | -106.04278 | 26061 ft | 441 kts | 255° |
| 2026-05-07 03:57 | 39.42491 | -106.07992 | 26386 ft | 444 kts | 255° |
| 2026-05-07 03:57 | 39.41435 | -106.11750 | 26691 ft | 446 kts | 255° |
| 2026-05-07 03:57 | 39.40366 | -106.15542 | 27020 ft | 448 kts | 255° |
| 2026-05-07 03:58 | 39.39297 | -106.19336 | 27353 ft | 450 kts | 255° |
| 2026-05-07 03:58 | 39.38219 | -106.23161 | 27692 ft | 453 kts | 255° |
| 2026-05-07 03:58 | 39.37145 | -106.26961 | 28078 ft | 455 kts | 255° |
| 2026-05-07 03:58 | 39.36049 | -106.30835 | 28401 ft | 458 kts | 255° |
| 2026-05-07 03:59 | 39.34964 | -106.34662 | 28699 ft | 460 kts | 255° |
| 2026-05-07 03:59 | 39.33856 | -106.38563 | 28965 ft | 463 kts | 255° |
| 2026-05-07 03:59 | 39.32741 | -106.42483 | 29240 ft | 465 kts | 255° |
| 2026-05-07 03:59 | 39.31617 | -106.46429 | 29560 ft | 467 kts | 255° |
| 2026-05-07 04:00 | 39.30488 | -106.50381 | 29857 ft | 469 kts | 255° |
| 2026-05-07 04:00 | 39.29367 | -106.54304 | 30133 ft | 471 kts | 255° |
| 2026-05-07 04:00 | 39.28222 | -106.58302 | 30446 ft | 472 kts | 255° |
| 2026-05-07 04:00 | 39.27085 | -106.62265 | 30815 ft | 470 kts | 255° |
| 2026-05-07 04:01 | 39.25962 | -106.66176 | 31221 ft | 468 kts | 255° |
| 2026-05-07 04:01 | 39.24831 | -106.70111 | 31558 ft | 467 kts | 255° |
| 2026-05-07 04:01 | 39.23414 | -106.73930 | 31841 ft | 476 kts | 240° |
| 2026-05-07 04:01 | 39.21455 | -106.77384 | 32202 ft | 477 kts | 238° |
| 2026-05-07 04:02 | 39.19466 | -106.80736 | 32557 ft | 476 kts | 237° |
| 2026-05-07 04:02 | 39.17445 | -106.84117 | 32881 ft | 475 kts | 237° |
| 2026-05-07 04:02 | 39.15420 | -106.87518 | 33192 ft | 474 kts | 238° |
| 2026-05-07 04:02 | 39.13450 | -106.90858 | 33426 ft | 473 kts | 238° |
| 2026-05-07 04:03 | 39.11468 | -106.94241 | 33727 ft | 471 kts | 238° |
| 2026-05-07 04:03 | 39.09500 | -106.97617 | 34023 ft | 469 kts | 238° |
| 2026-05-07 04:03 | 39.07567 | -107.00945 | 34246 ft | 469 kts | 238° |
| 2026-05-07 04:03 | 39.05612 | -107.04313 | 34452 ft | 469 kts | 238° |
| 2026-05-07 04:04 | 39.03655 | -107.07682 | 34700 ft | 467 kts | 238° |
| 2026-05-07 04:04 | 39.01733 | -107.10986 | 34988 ft | 465 kts | 238° |
| 2026-05-07 04:04 | 38.99792 | -107.14316 | 35203 ft | 464 kts | 238° |
| 2026-05-07 04:04 | 38.97854 | -107.17640 | 35369 ft | 464 kts | 238° |
| 2026-05-07 04:05 | 38.95914 | -107.20965 | 35524 ft | 465 kts | 238° |
| 2026-05-07 04:05 | 38.93964 | -107.24303 | 35626 ft | 467 kts | 238° |
| 2026-05-07 04:05 | 38.92031 | -107.27607 | 35822 ft | 466 kts | 238° |
| 2026-05-07 04:05 | 38.90083 | -107.30931 | 36094 ft | 464 kts | 238° |
| 2026-05-07 04:06 | 38.88135 | -107.34251 | 36152 ft | 466 kts | 238° |
| 2026-05-07 04:06 | 38.84209 | -107.40939 | 36153 ft | 471 kts | 238° |
| 2026-05-07 04:07 | 38.80254 | -107.47659 | 36152 ft | 471 kts | 238° |
| 2026-05-07 04:07 | 38.76313 | -107.54337 | 36133 ft | 469 kts | 238° |
| 2026-05-07 04:08 | 38.72376 | -107.60995 | 36166 ft | 468 kts | 238° |
| 2026-05-07 04:08 | 38.68452 | -107.67621 | 36165 ft | 468 kts | 238° |
| 2026-05-07 04:09 | 38.64527 | -107.74236 | 36157 ft | 469 kts | 237° |
| 2026-05-07 04:09 | 38.60565 | -107.80898 | 36162 ft | 469 kts | 237° |
| 2026-05-07 04:09 | 38.58606 | -107.84187 | 36263 ft | 469 kts | 237° |
| 2026-05-07 04:10 | 38.56624 | -107.87512 | 36264 ft | 469 kts | 237° |
| 2026-05-07 04:10 | 38.52653 | -107.94161 | 36270 ft | 469 kts | 237° |
| 2026-05-07 04:11 | 38.48702 | -108.00765 | 36264 ft | 470 kts | 237° |
| 2026-05-07 04:11 | 38.44717 | -108.07411 | 36245 ft | 470 kts | 237° |
| 2026-05-07 04:12 | 38.40745 | -108.14021 | 36218 ft | 471 kts | 237° |
| 2026-05-07 04:12 | 38.36775 | -108.20615 | 36206 ft | 471 kts | 237° |
| 2026-05-07 04:13 | 38.32776 | -108.27245 | 36165 ft | 470 kts | 237° |
| 2026-05-07 04:13 | 38.28796 | -108.33828 | 36172 ft | 470 kts | 237° |
| 2026-05-07 04:14 | 38.24818 | -108.40397 | 36177 ft | 470 kts | 237° |
| 2026-05-07 04:14 | 38.20812 | -108.46998 | 36161 ft | 470 kts | 237° |
| 2026-05-07 04:15 | 38.16829 | -108.53547 | 36163 ft | 470 kts | 237° |
| 2026-05-07 04:15 | 38.12811 | -108.60139 | 36147 ft | 471 kts | 237° |
| 2026-05-07 04:16 | 38.08814 | -108.66685 | 36154 ft | 470 kts | 236° |
| 2026-05-07 04:16 | 38.04808 | -108.73233 | 36135 ft | 471 kts | 236° |
| 2026-05-07 04:17 | 38.00780 | -108.79802 | 36121 ft | 470 kts | 236° |
| 2026-05-07 04:17 | 37.96777 | -108.86320 | 36138 ft | 471 kts | 236° |
| 2026-05-07 04:18 | 37.92749 | -108.92865 | 36145 ft | 472 kts | 236° |
| 2026-05-07 04:18 | 37.88695 | -108.99438 | 36135 ft | 473 kts | 236° |
| 2026-05-07 04:19 | 37.84636 | -109.06006 | 36144 ft | 473 kts | 236° |
| 2026-05-07 04:19 | 37.80585 | -109.12549 | 36120 ft | 474 kts | 236° |
| 2026-05-07 04:20 | 37.76502 | -109.19129 | 36157 ft | 474 kts | 236° |
| 2026-05-07 04:20 | 37.72440 | -109.25662 | 36166 ft | 475 kts | 236° |
| 2026-05-07 04:21 | 37.66310 | -109.35498 | 36214 ft | 476 kts | 236° |
| 2026-05-07 04:21 | 37.62204 | -109.42070 | 36233 ft | 476 kts | 236° |
| 2026-05-07 04:22 | 37.58084 | -109.48651 | 36217 ft | 477 kts | 235° |
| 2026-05-07 04:22 | 37.53989 | -109.55179 | 36229 ft | 477 kts | 235° |
| 2026-05-07 04:23 | 37.49860 | -109.61748 | 36208 ft | 477 kts | 235° |
| 2026-05-07 04:23 | 37.45751 | -109.68273 | 36174 ft | 477 kts | 235° |
| 2026-05-07 04:24 | 37.41609 | -109.74837 | 36079 ft | 477 kts | 235° |
| 2026-05-07 04:24 | 37.37497 | -109.81341 | 36057 ft | 477 kts | 234° |
| 2026-05-07 04:25 | 37.33358 | -109.87874 | 36063 ft | 477 kts | 234° |
| 2026-05-07 04:25 | 37.29225 | -109.94384 | 36063 ft | 477 kts | 234° |
| 2026-05-07 04:26 | 37.25104 | -110.00865 | 36072 ft | 477 kts | 234° |
| 2026-05-07 04:26 | 37.20954 | -110.07376 | 36054 ft | 478 kts | 234° |
| 2026-05-07 04:27 | 37.16784 | -110.13907 | 36033 ft | 478 kts | 234° |
| 2026-05-07 04:27 | 37.12634 | -110.20395 | 36040 ft | 478 kts | 234° |
| 2026-05-07 04:28 | 37.08487 | -110.26864 | 36050 ft | 478 kts | 234° |
| 2026-05-07 04:28 | 37.04314 | -110.33362 | 36047 ft | 478 kts | 234° |
| 2026-05-07 04:29 | 37.00153 | -110.39827 | 36045 ft | 478 kts | 234° |
| 2026-05-07 04:29 | 36.95979 | -110.46302 | 36048 ft | 477 kts | 234° |
| 2026-05-07 04:30 | 36.91826 | -110.52730 | 36035 ft | 477 kts | 234° |
| 2026-05-07 04:30 | 36.87646 | -110.59188 | 36045 ft | 478 kts | 233° |
| 2026-05-07 04:31 | 36.83460 | -110.65643 | 36030 ft | 479 kts | 233° |
| 2026-05-07 04:31 | 36.79952 | -110.71044 | 36041 ft | 480 kts | 233° |
| 2026-05-07 04:32 | 36.75042 | -110.78588 | 36019 ft | 481 kts | 233° |
| 2026-05-07 04:32 | 36.71519 | -110.83991 | 36002 ft | 482 kts | 233° |
| 2026-05-07 04:33 | 36.67269 | -110.90496 | 36016 ft | 483 kts | 233° |
| 2026-05-07 04:33 | 36.63028 | -110.96974 | 36007 ft | 485 kts | 233° |
| 2026-05-07 04:34 | 36.58769 | -111.03468 | 36005 ft | 486 kts | 233° |
| 2026-05-07 04:34 | 36.54475 | -111.10003 | 36006 ft | 486 kts | 233° |
| 2026-05-07 04:35 | 36.50207 | -111.16484 | 35992 ft | 486 kts | 233° |
| 2026-05-07 04:35 | 36.45930 | -111.22968 | 36004 ft | 485 kts | 233° |
| 2026-05-07 04:36 | 36.41659 | -111.29431 | 36008 ft | 485 kts | 233° |
| 2026-05-07 04:36 | 36.37363 | -111.35917 | 36020 ft | 485 kts | 233° |
| 2026-05-07 04:37 | 36.33073 | -111.42383 | 36005 ft | 484 kts | 233° |
| 2026-05-07 04:37 | 36.28807 | -111.48802 | 36015 ft | 484 kts | 233° |
| 2026-05-07 04:38 | 36.24506 | -111.55259 | 36024 ft | 484 kts | 233° |
| 2026-05-07 04:38 | 36.20234 | -111.61662 | 36015 ft | 484 kts | 233° |
| 2026-05-07 04:39 | 36.15960 | -111.68054 | 36049 ft | 484 kts | 232° |
| 2026-05-07 04:39 | 36.11642 | -111.74502 | 36020 ft | 485 kts | 232° |
| 2026-05-07 04:40 | 36.07480 | -111.81034 | 36046 ft | 483 kts | 240° |
| 2026-05-07 04:40 | 36.04667 | -111.88444 | 36126 ft | 477 kts | 252° |
| 2026-05-07 04:41 | 36.02294 | -111.96130 | 36166 ft | 477 kts | 252° |
| 2026-05-07 04:41 | 35.99897 | -112.03792 | 36218 ft | 477 kts | 251° |
| 2026-05-07 04:42 | 35.97471 | -112.11393 | 36223 ft | 476 kts | 251° |
| 2026-05-07 04:42 | 35.95035 | -112.18955 | 36215 ft | 476 kts | 251° |
| 2026-05-07 04:43 | 35.92578 | -112.26558 | 36215 ft | 475 kts | 251° |
| 2026-05-07 04:43 | 35.90135 | -112.34109 | 36170 ft | 475 kts | 251° |
| 2026-05-07 04:44 | 35.87669 | -112.41710 | 36128 ft | 475 kts | 251° |
| 2026-05-07 04:44 | 35.85212 | -112.49267 | 36013 ft | 476 kts | 251° |
| 2026-05-07 04:45 | 35.82752 | -112.56815 | 36032 ft | 477 kts | 251° |
| 2026-05-07 04:45 | 35.80267 | -112.64419 | 36029 ft | 478 kts | 250° |
| 2026-05-07 04:46 | 35.77789 | -112.71981 | 36021 ft | 479 kts | 250° |
| 2026-05-07 04:46 | 35.75282 | -112.79613 | 36014 ft | 480 kts | 250° |
| 2026-05-07 04:47 | 35.72781 | -112.87204 | 36016 ft | 480 kts | 250° |
| 2026-05-07 04:47 | 35.70259 | -112.94844 | 36018 ft | 480 kts | 250° |
| 2026-05-07 04:48 | 35.67750 | -113.02424 | 36000 ft | 480 kts | 250° |
| 2026-05-07 04:48 | 35.65216 | -113.10057 | 35998 ft | 480 kts | 250° |
| 2026-05-07 04:49 | 35.62695 | -113.17637 | 35992 ft | 480 kts | 250° |
| 2026-05-07 04:49 | 35.60159 | -113.25240 | 35986 ft | 481 kts | 250° |
| 2026-05-07 04:50 | 35.57622 | -113.32827 | 35981 ft | 481 kts | 250° |
| 2026-05-07 04:50 | 35.55067 | -113.40450 | 35972 ft | 482 kts | 250° |
| 2026-05-07 04:51 | 35.52508 | -113.48062 | 35965 ft | 484 kts | 250° |
| 2026-05-07 04:51 | 35.49946 | -113.55666 | 35959 ft | 484 kts | 250° |
| 2026-05-07 04:52 | 35.47359 | -113.63323 | 35964 ft | 485 kts | 250° |
| 2026-05-07 04:52 | 35.44772 | -113.70964 | 35998 ft | 486 kts | 250° |
| 2026-05-07 04:53 | 35.42178 | -113.78603 | 36023 ft | 486 kts | 250° |
| 2026-05-07 04:53 | 35.39569 | -113.86268 | 36051 ft | 486 kts | 250° |
| 2026-05-07 04:54 | 35.36973 | -113.93878 | 36074 ft | 485 kts | 250° |
| 2026-05-07 04:54 | 35.34366 | -114.01499 | 36083 ft | 484 kts | 250° |
| 2026-05-07 04:55 | 35.31773 | -114.09062 | 36050 ft | 483 kts | 250° |
| 2026-05-07 04:55 | 35.29173 | -114.16625 | 36031 ft | 482 kts | 250° |
| 2026-05-07 04:56 | 35.26558 | -114.24215 | 35988 ft | 482 kts | 249° |
| 2026-05-07 04:56 | 35.23954 | -114.31754 | 35946 ft | 481 kts | 249° |
| 2026-05-07 04:57 | 35.21356 | -114.39256 | 35916 ft | 481 kts | 250° |
| 2026-05-07 04:57 | 35.18735 | -114.46806 | 35913 ft | 481 kts | 250° |
| 2026-05-07 04:58 | 35.16132 | -114.54287 | 35912 ft | 481 kts | 250° |
| 2026-05-07 04:58 | 35.13504 | -114.61824 | 35945 ft | 481 kts | 249° |
| 2026-05-07 04:59 | 35.10899 | -114.69312 | 35946 ft | 481 kts | 250° |
| 2026-05-07 04:59 | 35.08279 | -114.76855 | 35949 ft | 481 kts | 250° |
| 2026-05-07 05:00 | 35.05662 | -114.84364 | 35935 ft | 482 kts | 249° |
| 2026-05-07 05:00 | 35.02997 | -114.91892 | 35953 ft | 484 kts | 247° |
| 2026-05-07 05:01 | 34.99909 | -114.99186 | 35956 ft | 487 kts | 243° |
| 2026-05-07 05:01 | 34.96637 | -115.06488 | 35960 ft | 489 kts | 244° |
| 2026-05-07 05:02 | 34.93424 | -115.13772 | 35970 ft | 490 kts | 244° |
| 2026-05-07 05:02 | 34.90221 | -115.21127 | 35985 ft | 491 kts | 244° |
| 2026-05-07 05:03 | 34.87029 | -115.28455 | 35986 ft | 491 kts | 244° |
| 2026-05-07 05:03 | 34.83818 | -115.35804 | 35966 ft | 491 kts | 244° |
| 2026-05-07 05:04 | 34.80616 | -115.43112 | 35991 ft | 490 kts | 244° |
| 2026-05-07 05:04 | 34.77540 | -115.50533 | 35990 ft | 488 kts | 248° |
| 2026-05-07 05:05 | 34.74832 | -115.58064 | 35982 ft | 488 kts | 249° |
| 2026-05-07 05:05 | 34.72118 | -115.65629 | 35994 ft | 488 kts | 249° |
| 2026-05-07 05:06 | 34.69363 | -115.73125 | 35997 ft | 488 kts | 249° |
| 2026-05-07 05:06 | 34.66573 | -115.80644 | 36006 ft | 489 kts | 249° |
| 2026-05-07 05:07 | 34.63769 | -115.88198 | 35974 ft | 490 kts | 249° |
| 2026-05-07 05:07 | 34.60984 | -115.95731 | 35980 ft | 491 kts | 249° |
| 2026-05-07 05:08 | 34.59577 | -115.99557 | 35537 ft | 499 kts | 249° |
| 2026-05-07 05:08 | 34.58169 | -116.03385 | 34904 ft | 501 kts | 249° |
| 2026-05-07 05:08 | 34.56745 | -116.07241 | 34292 ft | 499 kts | 249° |
| 2026-05-07 05:08 | 34.55307 | -116.11131 | 33314 ft | 504 kts | 249° |
| 2026-05-07 05:09 | 34.53886 | -116.14967 | 32601 ft | 502 kts | 248° |
| 2026-05-07 05:09 | 34.52462 | -116.18803 | 32067 ft | 497 kts | 248° |
| 2026-05-07 05:09 | 34.51040 | -116.22627 | 31483 ft | 493 kts | 248° |
| 2026-05-07 05:09 | 34.49630 | -116.26419 | 30915 ft | 489 kts | 248° |
| 2026-05-07 05:10 | 34.48233 | -116.30170 | 30390 ft | 485 kts | 248° |
| 2026-05-07 05:10 | 34.46866 | -116.33838 | 29827 ft | 481 kts | 248° |
| 2026-05-07 05:10 | 34.45489 | -116.37531 | 29218 ft | 477 kts | 248° |
| 2026-05-07 05:10 | 34.44117 | -116.41206 | 28646 ft | 473 kts | 248° |
| 2026-05-07 05:11 | 34.42780 | -116.44783 | 28108 ft | 469 kts | 248° |
| 2026-05-07 05:11 | 34.41431 | -116.48382 | 27563 ft | 464 kts | 248° |
| 2026-05-07 05:11 | 34.40031 | -116.51910 | 27043 ft | 461 kts | 246° |
| 2026-05-07 05:11 | 34.38608 | -116.55318 | 26528 ft | 457 kts | 245° |
| 2026-05-07 05:12 | 34.37157 | -116.58759 | 26007 ft | 454 kts | 245° |
| 2026-05-07 05:12 | 34.35736 | -116.62158 | 25500 ft | 450 kts | 245° |
| 2026-05-07 05:12 | 34.34353 | -116.65500 | 25011 ft | 447 kts | 245° |
| 2026-05-07 05:12 | 34.32963 | -116.68877 | 24472 ft | 445 kts | 246° |
| 2026-05-07 05:13 | 34.31599 | -116.72255 | 23912 ft | 445 kts | 246° |
| 2026-05-07 05:13 | 34.30256 | -116.75608 | 23384 ft | 440 kts | 246° |
| 2026-05-07 05:13 | 34.28929 | -116.78922 | 22818 ft | 433 kts | 246° |
| 2026-05-07 05:13 | 34.27642 | -116.82129 | 22304 ft | 425 kts | 246° |
| 2026-05-07 05:14 | 34.26356 | -116.85324 | 21823 ft | 420 kts | 246° |
| 2026-05-07 05:14 | 34.25073 | -116.88505 | 21355 ft | 417 kts | 246° |
| 2026-05-07 05:14 | 34.23823 | -116.91601 | 20896 ft | 414 kts | 246° |
| 2026-05-07 05:14 | 34.22563 | -116.94718 | 20435 ft | 411 kts | 246° |
| 2026-05-07 05:15 | 34.21306 | -116.97825 | 19962 ft | 409 kts | 246° |
| 2026-05-07 05:15 | 34.20223 | -117.01000 | 19500 ft | 405 kts | 253° |
| 2026-05-07 05:15 | 34.19391 | -117.04204 | 19038 ft | 402 kts | 256° |
| 2026-05-07 05:15 | 34.18596 | -117.07442 | 18599 ft | 400 kts | 256° |
| 2026-05-07 05:16 | 34.17770 | -117.10656 | 18056 ft | 398 kts | 255° |
| 2026-05-07 05:16 | 34.16934 | -117.13793 | 17586 ft | 396 kts | 254° |
| 2026-05-07 05:16 | 34.16071 | -117.16960 | 17068 ft | 394 kts | 253° |
| 2026-05-07 05:16 | 34.15203 | -117.20107 | 16658 ft | 391 kts | 253° |
| 2026-05-07 05:17 | 34.14346 | -117.23206 | 16215 ft | 388 kts | 253° |
| 2026-05-07 05:17 | 34.13502 | -117.26265 | 15739 ft | 386 kts | 253° |
| 2026-05-07 05:17 | 34.12650 | -117.29353 | 15259 ft | 385 kts | 253° |
| 2026-05-07 05:17 | 34.11810 | -117.32398 | 14797 ft | 378 kts | 253° |
| 2026-05-07 05:18 | 34.10988 | -117.35372 | 14348 ft | 368 kts | 253° |
| 2026-05-07 05:18 | 34.10203 | -117.38260 | 14003 ft | 362 kts | 254° |
| 2026-05-07 05:18 | 34.09484 | -117.41123 | 13926 ft | 349 kts | 255° |
| 2026-05-07 05:18 | 34.08798 | -117.43910 | 13674 ft | 343 kts | 255° |
| 2026-05-07 05:19 | 34.08116 | -117.46662 | 13447 ft | 336 kts | 255° |
| 2026-05-07 05:19 | 34.07450 | -117.49330 | 13254 ft | 329 kts | 254° |
| 2026-05-07 05:19 | 34.06699 | -117.51885 | 12922 ft | 327 kts | 248° |
| 2026-05-07 05:19 | 34.05782 | -117.54402 | 12544 ft | 326 kts | 246° |
| 2026-05-07 05:20 | 34.04841 | -117.56888 | 12213 ft | 325 kts | 246° |
| 2026-05-07 05:20 | 34.03929 | -117.59330 | 12117 ft | 314 kts | 247° |
| 2026-05-07 05:20 | 34.03052 | -117.61725 | 11867 ft | 310 kts | 248° |
| 2026-05-07 05:20 | 34.02198 | -117.64084 | 11539 ft | 309 kts | 248° |
| 2026-05-07 05:21 | 34.01342 | -117.66457 | 11227 ft | 308 kts | 248° |
| 2026-05-07 05:21 | 34.00790 | -117.70509 | 10837 ft | 293 kts | 278° |
| 2026-05-07 05:21 | 34.00592 | -117.73800 | 10344 ft | 299 kts | 261° |
| 2026-05-07 05:22 | 34.00228 | -117.76274 | 9979 ft | 300 kts | 264° |
| 2026-05-07 05:22 | 34.00040 | -117.77961 | 9745 ft | 300 kts | 265° |
| 2026-05-07 05:22 | 33.99794 | -117.80419 | 9400 ft | 299 kts | 265° |
| 2026-05-07 05:22 | 33.99531 | -117.82917 | 9018 ft | 300 kts | 265° |
| 2026-05-07 05:23 | 33.99261 | -117.85418 | 8625 ft | 301 kts | 264° |
| 2026-05-07 05:23 | 33.98993 | -117.87929 | 8226 ft | 302 kts | 264° |
| 2026-05-07 05:23 | 33.98729 | -117.90416 | 7816 ft | 300 kts | 264° |
| 2026-05-07 05:23 | 33.98466 | -117.92889 | 7429 ft | 294 kts | 264° |
| 2026-05-07 05:24 | 33.98209 | -117.95310 | 7047 ft | 288 kts | 264° |
| 2026-05-07 05:24 | 33.97957 | -117.97691 | 6669 ft | 283 kts | 264° |
| 2026-05-07 05:24 | 33.97713 | -118.00002 | 6293 ft | 277 kts | 264° |
| 2026-05-07 05:24 | 33.97472 | -118.02293 | 5921 ft | 272 kts | 263° |
| 2026-05-07 05:25 | 33.97240 | -118.04498 | 5542 ft | 266 kts | 263° |
| 2026-05-07 05:25 | 33.97011 | -118.06679 | 5226 ft | 256 kts | 264° |
| 2026-05-07 05:25 | 33.96791 | -118.08767 | 4864 ft | 247 kts | 264° |
| 2026-05-07 05:25 | 33.96580 | -118.10782 | 4534 ft | 236 kts | 264° |
| 2026-05-07 05:26 | 33.96379 | -118.12703 | 4254 ft | 225 kts | 264° |
| 2026-05-07 05:26 | 33.96188 | -118.14536 | 3971 ft | 214 kts | 264° |
| 2026-05-07 05:26 | 33.96008 | -118.16259 | 3682 ft | 204 kts | 263° |
| 2026-05-07 05:26 | 33.95836 | -118.17917 | 3429 ft | 193 kts | 263° |
| 2026-05-07 05:27 | 33.95674 | -118.19474 | 3176 ft | 182 kts | 263° |
| 2026-05-07 05:27 | 33.95518 | -118.20975 | 2965 ft | 182 kts | 263° |
| 2026-05-07 05:27 | 33.95360 | -118.22501 | 2729 ft | 183 kts | 263° |
| 2026-05-07 05:27 | 33.95203 | -118.24013 | 2465 ft | 181 kts | 263° |
| 2026-05-07 05:28 | 33.95051 | -118.25483 | 2226 ft | 177 kts | 263° |
| 2026-05-07 05:28 | 33.94901 | -118.26937 | 1992 ft | 167 kts | 263° |
| 2026-05-07 05:28 | 33.94758 | -118.28320 | 1827 ft | 167 kts | 263° |
| 2026-05-07 05:28 | 33.94614 | -118.29714 | 1545 ft | 166 kts | 263° |
| 2026-05-07 05:29 | 33.94474 | -118.31075 | 1344 ft | 163 kts | 263° |
| 2026-05-07 05:29 | 33.94336 | -118.32410 | 1122 ft | 160 kts | 262° |
| 2026-05-07 05:29 | 33.94204 | -118.33699 | 914 ft | 150 kts | 262° |
| 2026-05-07 05:29 | 33.94078 | -118.34926 | 734 ft | 145 kts | 262° |
| 2026-05-07 05:30 | 33.93953 | -118.36141 | 520 ft | 146 kts | 262° |
| 2026-05-07 05:30 | 33.93832 | -118.37330 | 335 ft | 141 kts | 262° |
| 2026-05-07 05:30 | 33.93711 | -118.38504 | 162 ft | 141 kts | 262° |
| 2026-05-07 05:30 | 33.93591 | -118.39651 | 123 ft | 134 kts | 262° |
| 2026-05-07 05:31 | 33.93503 | -118.40453 | 125 ft | 61 kts | 262° |
| 2026-05-07 05:31 | 33.93459 | -118.40852 | 122 ft | 29 kts | 269° |
| 2026-05-07 05:31 | 33.93503 | -118.41081 | 123 ft | 28 kts | 287° |
| 2026-05-07 05:31 | 33.93541 | -118.41213 | 122 ft | 10 kts | 304° |
| 2026-05-07 05:32 | 33.93599 | -118.41253 | 122 ft | 10 kts | 346° |
| 2026-05-07 05:32 | 33.93666 | -118.41265 | 123 ft | 9 kts | 352° |
| 2026-05-07 05:32 | 33.93728 | -118.41259 | 123 ft | 9 kts | 36° |
| 2026-05-07 05:32 | 33.93755 | -118.41191 | 123 ft | 9 kts | 77° |
| 2026-05-07 05:33 | 33.93766 | -118.41117 | 121 ft | 9 kts | 82° |
| 2026-05-07 05:33 | 33.93774 | -118.41024 | 125 ft | 14 kts | 85° |
| 2026-05-07 05:33 | 33.93783 | -118.40902 | 123 ft | 14 kts | 83° |
| 2026-05-07 05:33 | 33.93797 | -118.40784 | 123 ft | 14 kts | 82° |
| 2026-05-07 05:34 | 33.93810 | -118.40672 | 120 ft | 13 kts | 82° |
| 2026-05-07 05:34 | 33.93822 | -118.40564 | 123 ft | 14 kts | 82° |
| 2026-05-07 05:34 | 33.93835 | -118.40448 | 124 ft | 14 kts | 83° |
| 2026-05-07 05:34 | 33.93848 | -118.40324 | 125 ft | 15 kts | 83° |
| 2026-05-07 05:35 | 33.93861 | -118.40197 | 125 ft | 15 kts | 82° |
| 2026-05-07 05:35 | 33.93874 | -118.40080 | 125 ft | 13 kts | 85° |
| 2026-05-07 05:35 | 33.93909 | -118.40047 | 122 ft | 8 kts | 344° |
| 2026-05-07 05:35 | 33.93967 | -118.40059 | 120 ft | 9 kts | 354° |
| 2026-05-07 05:36 | 33.94032 | -118.40064 | 122 ft | 10 kts | 354° |
| 2026-05-07 05:36 | 33.94082 | -118.40073 | 123 ft | 1 kts | 351° |
| 2026-05-07 05:36 | 33.94092 | -118.40076 | 124 ft | 2 kts | 337° |
| 2026-05-07 05:36 | 33.94100 | -118.40091 | 124 ft | 2 kts | 290° |
| 2026-05-07 05:37 | 33.94101 | -118.40114 | 125 ft | 3 kts | 269° |
| 2026-05-07 05:37 | 33.94100 | -118.40128 | 121 ft | 0 kts | 267° |